Time;durP1;ratioP1;P1;durP2;ratioP2;P2;SDS_P1;SDS_P2;PMS_P1;PMS_P2;Temp;Humidity;BMP_temperature;BMP_pressure;BME280_temperature;BME280_humidity;BME280_pressure;Samples;Min_cycle;Max_cycle;Signal;HPM_P1;HPM_P2
2022/05/11 00:02:02;;;;;;;4.50;3.00;;;;;;;16.16;68.06;101222.69;7391993;19;20014;-62
2022/05/11 00:04:34;;;;;;;4.88;3.13;;;;;;;16.23;68.05;101221.34;7391123;19;20027;-61
2022/05/11 00:07:03;;;;;;;4.22;3.00;;;;;;;16.21;68.35;101216.16;7391358;19;20014;-62
2022/05/11 00:09:31;;;;;;;7.60;3.25;;;;;;;16.20;68.93;101195.94;7388959;19;20018;-62
2022/05/11 00:12:00;;;;;;;6.03;3.00;;;;;;;16.23;70.12;101200.19;7391600;19;20006;-62
2022/05/11 00:14:29;;;;;;;6.35;3.00;;;;;;;16.09;69.03;101196.63;7391106;19;20021;-61
2022/05/11 00:16:59;;;;;;;6.53;3.10;;;;;;;16.18;68.83;101195.19;7390059;19;20026;-62
2022/05/11 00:19:28;;;;;;;4.43;2.60;;;;;;;16.07;68.43;101193.22;7387737;19;20025;-61
2022/05/11 00:22:00;;;;;;;4.55;2.65;;;;;;;16.04;69.00;101190.75;7390682;19;20025;-61
2022/05/11 00:24:29;;;;;;;5.18;3.03;;;;;;;16.18;67.51;101200.50;7390412;19;20026;-63
2022/05/11 00:26:58;;;;;;;4.85;2.90;;;;;;;16.25;68.02;101195.69;7388998;19;20017;-62
2022/05/11 00:29:27;;;;;;;9.52;3.30;;;;;;;16.27;68.01;101191.13;7387844;19;20018;-62
2022/05/11 00:31:56;;;;;;;10.98;4.32;;;;;;;16.21;68.06;101196.81;7390592;19;20026;-61
2022/05/11 00:34:25;;;;;;;5.63;3.35;;;;;;;16.27;67.34;101191.97;7390752;19;20397;-62
2022/05/11 00:36:54;;;;;;;6.53;4.30;;;;;;;16.18;67.48;101189.91;7389978;19;20019;-62
2022/05/11 00:39:26;;;;;;;5.65;3.30;;;;;;;16.17;68.27;101180.28;7387596;19;20444;-62
2022/05/11 00:41:55;;;;;;;4.80;3.30;;;;;;;16.12;68.32;101176.22;7390150;19;20034;-63
2022/05/11 00:44:24;;;;;;;5.30;3.40;;;;;;;16.18;68.14;101174.06;7386769;19;20525;-61
2022/05/11 00:46:59;;;;;;;5.95;3.33;;;;;;;15.99;68.67;101169.06;7390736;19;20017;-62
2022/05/11 00:49:40;;;;;;;6.93;3.40;;;;;;;15.96;69.39;101157.81;7388507;19;20018;-61
2022/05/11 00:52:13;;;;;;;5.10;3.30;;;;;;;15.98;68.23;101158.59;7390426;19;20014;-62
2022/05/11 00:54:50;;;;;;;7.68;3.50;;;;;;;16.02;68.71;101154.81;7390363;19;20022;-63
2022/05/11 00:57:23;;;;;;;6.53;3.50;;;;;;;16.00;69.17;101151.41;7389685;19;20029;-62
2022/05/11 00:59:54;;;;;;;7.20;3.50;;;;;;;15.95;70.17;101143.75;7388161;19;20345;-61
2022/05/11 01:02:25;;;;;;;24.58;4.60;;;;;;;16.00;68.38;101146.94;7390868;19;20344;-62
2022/05/11 01:04:57;;;;;;;6.93;3.63;;;;;;;16.07;67.37;101142.97;7390727;19;20018;-61
2022/05/11 01:07:26;;;;;;;30.23;5.57;;;;;;;16.06;68.31;101148.38;7389555;19;20023;-62
2022/05/11 01:09:58;;;;;;;9.77;4.05;;;;;;;16.12;67.08;101140.06;7387336;19;20015;-61
2022/05/11 01:12:31;;;;;;;8.88;3.53;;;;;;;16.11;66.18;101132.25;7390570;19;20033;-62
2022/05/11 01:15:04;;;;;;;6.40;3.95;;;;;;;15.89;66.53;101128.28;7389769;19;20010;-62
2022/05/11 01:17:34;;;;;;;;;;;;;;;15.85;66.81;101129.41;7390360;19;20097;-60
2022/05/11 01:20:06;;;;;;;6.65;4.00;;;;;;;15.89;66.50;101129.13;7388521;19;20260;-62
2022/05/11 01:22:40;;;;;;;6.18;4.10;;;;;;;15.97;65.94;101128.66;7390181;19;20482;-62
2022/05/11 01:25:13;;;;;;;9.00;4.18;;;;;;;16.12;65.04;101123.34;7389657;19;20332;-62
2022/05/11 01:27:44;;;;;;;9.20;4.15;;;;;;;16.25;63.90;101127.78;7389275;19;20015;-63
2022/05/11 01:30:16;;;;;;;5.90;4.28;;;;;;;16.11;64.11;101127.78;7387452;19;20024;-62
2022/05/11 01:32:47;;;;;;;6.10;4.07;;;;;;;15.94;64.06;101120.91;7388666;19;20015;-62
2022/05/11 01:35:36;;;;;;;7.57;4.30;;;;;;;15.96;64.21;101121.69;7388353;19;20091;-61
2022/05/11 01:38:17;;;;;;;6.07;4.53;;;;;;;15.74;65.55;101115.03;7388089;19;20023;-63
2022/05/11 01:40:49;;;;;;;8.75;4.50;;;;;;;15.90;65.03;101111.47;7386061;19;20011;-61
2022/05/11 01:43:19;;;;;;;5.60;4.33;;;;;;;15.89;65.06;101115.06;7388856;19;20021;-62
2022/05/11 01:45:48;;;;;;;7.95;4.43;;;;;;;15.92;64.88;101106.94;7388637;19;20254;-62
2022/05/11 01:48:18;;;;;;;8.15;5.10;;;;;;;15.78;65.08;101105.13;7387194;19;20007;-62
2022/05/11 01:50:47;;;;;;;7.85;4.20;;;;;;;15.84;64.90;101101.28;7385497;19;20022;-62
2022/05/11 01:53:17;;;;;;;10.20;4.95;;;;;;;15.79;65.60;101098.06;7388916;19;20030;-62
2022/05/11 01:55:48;;;;;;;9.68;4.60;;;;;;;15.78;65.29;101104.28;7391183;19;20411;-62
2022/05/11 01:58:18;;;;;;;9.20;4.72;;;;;;;15.63;65.78;101095.50;7393373;19;20093;-61
2022/05/11 02:00:49;;;;;;;8.00;4.40;;;;;;;15.77;65.42;101092.84;7394666;19;20021;-61
2022/05/11 02:03:20;;;;;;;7.25;4.70;;;;;;;15.89;64.30;101091.28;7395021;19;20028;-64
2022/05/11 02:08:31;;;;;;;7.40;4.50;;;;;;;15.83;65.32;101084.59;7394404;19;20014;-61
2022/05/11 02:11:03;;;;;;;7.75;4.80;;;;;;;15.95;64.52;101092.69;7392089;19;20014;-62
2022/05/11 02:13:33;;;;;;;7.78;4.40;;;;;;;15.89;64.76;101089.50;7393845;19;20011;-61
2022/05/11 02:16:03;;;;;;;7.25;4.93;;;;;;;15.82;64.41;101088.19;7394838;19;20022;-62
2022/05/11 02:18:33;;;;;;;10.70;5.13;;;;;;;15.89;63.71;101094.78;7393949;19;20018;-61
2022/05/11 02:21:02;;;;;;;6.15;4.43;;;;;;;15.95;64.24;101085.63;7394355;19;20328;-63
2022/05/11 02:23:31;;;;;;;6.72;4.78;;;;;;;15.87;63.75;101085.25;7394215;19;20014;-62
2022/05/11 02:26:02;;;;;;;8.27;4.82;;;;;;;15.91;63.82;101079.66;7394301;19;20483;-61
2022/05/11 02:28:31;;;;;;;11.80;4.85;;;;;;;15.77;63.74;101074.34;7392893;19;20103;-62
2022/05/11 02:31:00;;;;;;;6.35;4.70;;;;;;;15.81;63.87;101077.69;7392099;19;20018;-62
2022/05/11 02:33:30;;;;;;;9.75;5.18;;;;;;;15.90;64.07;101090.31;7394833;19;20525;-62
2022/05/11 02:35:59;;;;;;;8.20;5.18;;;;;;;15.95;63.80;101085.63;7394154;19;20014;-61
2022/05/11 02:38:30;;;;;;;7.30;4.80;;;;;;;15.80;64.56;101084.75;7392542;19;20011;-61
2022/05/11 02:40:59;;;;;;;6.60;5.00;;;;;;;15.83;63.97;101089.88;7393437;19;20019;-61
2022/05/11 02:43:32;;;;;;;7.82;5.50;;;;;;;15.69;64.65;101097.78;7391868;19;20006;-61
2022/05/11 02:46:00;;;;;;;;;;;;;;;15.63;65.37;101080.50;7394149;19;20021;-61
2022/05/11 02:48:31;;;;;;;7.85;4.80;;;;;;;15.77;64.76;101078.81;7392323;19;19918;-61
2022/05/11 02:51:01;;;;;;;9.95;5.53;;;;;;;15.66;65.04;101080.31;7390411;19;20086;-61
2022/05/11 02:53:32;;;;;;;9.00;4.53;;;;;;;15.59;65.66;101076.34;7391409;19;20017;-61
2022/05/11 02:56:00;;;;;;;7.85;4.88;;;;;;;15.72;65.37;101074.66;7393122;19;20015;-62
2022/05/11 02:58:34;;;;;;;7.32;5.40;;;;;;;15.63;66.19;101079.66;7391916;19;20014;-62
2022/05/11 03:01:06;;;;;;;7.82;5.72;;;;;;;15.65;66.21;101077.78;7387370;19;20660;-62
2022/05/11 03:03:38;;;;;;;9.80;5.70;;;;;;;15.77;66.30;101078.81;7393808;19;20022;-62
2022/05/11 03:06:08;;;;;;;9.55;5.88;;;;;;;15.69;66.79;101072.19;7391809;19;20011;-62
2022/05/11 03:08:38;;;;;;;9.25;5.45;;;;;;;15.74;67.38;101074.56;7391568;19;20022;-62
2022/05/11 03:11:08;;;;;;;9.88;5.65;;;;;;;15.74;66.74;101067.47;7390210;19;20049;-62
2022/05/11 03:13:39;;;;;;;8.77;5.63;;;;;;;15.72;66.50;101060.59;7393327;19;20010;-61
2022/05/11 03:16:08;;;;;;;9.55;6.28;;;;;;;15.62;67.52;101059.44;7392578;19;20026;-61
2022/05/11 03:18:37;;;;;;;9.23;5.68;;;;;;;15.60;67.13;101064.00;7390729;19;20021;-61
2022/05/11 03:21:06;;;;;;;8.52;5.90;;;;;;;15.61;67.71;101052.50;7391348;19;20019;-62
2022/05/11 03:23:35;;;;;;;9.48;6.38;;;;;;;15.55;67.84;101049.25;7392226;19;20495;-62
2022/05/11 03:26:04;;;;;;;9.30;6.28;;;;;;;15.62;67.41;101047.09;7392570;19;20340;-62
2022/05/11 03:28:33;;;;;;;11.38;6.25;;;;;;;15.40;69.51;101032.59;7391617;19;20375;-63
2022/05/11 03:31:04;;;;;;;11.45;6.28;;;;;;;15.38;69.65;101039.72;7390159;19;20014;-62
2022/05/11 03:36:14;;;;;;;7.90;6.20;;;;;;;15.54;67.95;101041.44;7392750;19;20075;-61
2022/05/11 03:38:43;;;;;;;9.52;6.32;;;;;;;15.45;68.85;101042.03;7391656;19;20483;-59
2022/05/11 03:41:12;;;;;;;8.05;5.90;;;;;;;15.60;67.90;101038.41;7395123;19;20015;-60
2022/05/11 03:43:41;;;;;;;9.20;5.95;;;;;;;15.45;68.31;101034.94;7392270;19;20540;-59
2022/05/11 03:46:13;;;;;;;9.05;6.47;;;;;;;15.54;68.31;101030.88;7391524;19;20010;-62
2022/05/11 03:48:42;;;;;;;11.30;6.50;;;;;;;15.58;67.72;101033.22;7391737;19;20014;-59
2022/05/11 03:51:11;;;;;;;8.45;6.40;;;;;;;15.55;68.14;101033.41;7389515;19;20085;-62
2022/05/11 03:53:40;;;;;;;7.18;6.25;;;;;;;15.52;67.24;101032.78;7391459;19;20014;-60
2022/05/11 03:56:09;;;;;;;8.50;6.50;;;;;;;15.53;67.58;101030.03;7390989;19;20018;-62
2022/05/11 03:58:38;;;;;;;8.90;6.50;;;;;;;15.41;68.31;101028.13;7390787;19;20478;-61
2022/05/11 04:01:07;;;;;;;7.95;5.82;;;;;;;15.57;67.55;101023.63;7390574;19;20015;-62
2022/05/11 04:03:38;;;;;;;9.52;6.50;;;;;;;15.63;67.14;101029.44;7391869;19;20014;-62
2022/05/11 04:06:08;;;;;;;8.52;5.63;;;;;;;15.29;68.32;101020.97;7391923;19;20022;-62
2022/05/11 04:08:37;;;;;;;7.63;5.80;;;;;;;15.47;67.49;101019.84;7390804;19;20022;-62
2022/05/11 04:11:06;;;;;;;9.05;6.47;;;;;;;15.52;67.41;101022.22;7389500;19;20029;-62
2022/05/11 04:13:34;;;;;;;8.45;6.10;;;;;;;15.47;67.00;101017.19;7391901;19;20332;-62
2022/05/11 04:16:03;;;;;;;7.55;5.35;;;;;;;15.51;67.02;101015.22;7391005;19;20019;-60
2022/05/11 04:18:32;;;;;;;10.65;6.32;;;;;;;15.53;67.70;101010.69;7390493;19;20011;-62
2022/05/11 04:21:04;;;;;;;8.23;5.57;;;;;;;15.42;67.73;101010.50;7390527;19;20006;-62
2022/05/11 04:23:33;;;;;;;12.93;5.87;;;;;;;15.42;67.79;101008.72;7391099;19;20014;-61
2022/05/11 04:26:02;;;;;;;9.20;5.72;;;;;;;15.43;66.68;101009.56;7391409;19;20019;-61
2022/05/11 04:28:32;;;;;;;10.85;5.43;;;;;;;15.45;66.70;101005.88;7390209;19;20018;-61
2022/05/11 04:31:05;;;;;;;8.30;5.47;;;;;;;15.51;66.36;101002.84;7389281;19;20093;-61
2022/05/11 04:33:34;;;;;;;7.20;5.47;;;;;;;15.48;66.34;101010.13;7390506;19;20015;-61
2022/05/11 04:36:06;;;;;;;7.35;5.20;;;;;;;15.57;66.83;101012.19;7390642;19;20023;-61
2022/05/11 04:38:36;;;;;;;6.72;5.13;;;;;;;15.68;66.80;101006.25;7389219;19;20025;-61
2022/05/11 04:41:05;;;;;;;7.75;4.97;;;;;;;15.62;65.98;101009.25;7389328;19;20377;-62
2022/05/11 04:43:34;;;;;;;7.63;5.07;;;;;;;15.60;65.99;101019.09;7390484;19;20019;-61
2022/05/11 04:46:03;;;;;;;6.93;5.40;;;;;;;15.61;66.52;101010.22;7389857;19;20022;-61
2022/05/11 04:48:32;;;;;;;7.25;5.20;;;;;;;15.59;66.45;101002.41;7389815;19;20022;-61
2022/05/11 04:51:07;;;;;;;5.47;4.85;;;;;;;15.62;66.41;101007.47;7388541;19;20018;-62
2022/05/11 04:53:36;;;;;;;8.10;5.18;;;;;;;15.65;66.75;101007.28;7390512;19;20015;-60
2022/05/11 04:56:06;;;;;;;7.20;4.40;;;;;;;15.62;66.24;101012.75;7390329;19;20102;-62
2022/05/11 04:58:35;;;;;;;7.38;5.22;;;;;;;15.50;66.44;101010.88;7389551;19;20023;-62
2022/05/11 05:01:04;;;;;;;8.07;5.38;;;;;;;15.60;66.82;101011.16;7389830;19;20416;-61
2022/05/11 05:03:33;;;;;;;8.18;5.07;;;;;;;15.64;65.63;101013.50;7390420;19;20018;-61
2022/05/11 05:06:02;;;;;;;9.45;5.25;;;;;;;15.54;66.41;101010.59;7389921;19;20348;-60
2022/05/11 05:08:33;;;;;;;6.65;4.72;;;;;;;15.66;65.82;101014.28;7389502;19;20061;-61
2022/05/11 05:11:02;;;;;;;8.85;4.85;;;;;;;15.57;66.45;101018.34;7388480;19;20458;-61
2022/05/11 05:13:31;;;;;;;8.80;4.85;;;;;;;15.64;66.11;101018.78;7390065;19;20015;-62
2022/05/11 05:16:00;;;;;;;9.60;4.72;;;;;;;15.61;65.87;101018.16;7390047;19;20022;-61
2022/05/11 05:18:28;;;;;;;7.72;4.57;;;;;;;15.58;67.13;101016.53;7389693;19;20022;-60
2022/05/11 05:20:58;;;;;;;7.25;4.75;;;;;;;15.49;67.04;101023.25;7387478;19;20007;-61
2022/05/11 05:23:27;;;;;;;5.88;4.38;;;;;;;15.65;66.10;101027.59;7390125;19;20475;-61
2022/05/11 05:26:00;;;;;;;6.63;4.70;;;;;;;15.63;66.21;101025.03;7390119;19;20018;-61
2022/05/11 05:31:14;;;;;;;8.38;4.38;;;;;;;15.61;66.33;101036.63;7393827;19;20019;-61
2022/05/11 05:33:43;;;;;;;7.65;4.43;;;;;;;15.67;65.34;101036.25;7397863;19;20018;-61
2022/05/11 05:36:13;;;;;;;7.55;4.40;;;;;;;15.59;65.37;101036.75;7397421;19;20026;-61
2022/05/11 05:38:43;;;;;;;7.85;4.25;;;;;;;15.60;65.54;101041.06;7395481;19;20130;-61
2022/05/11 05:41:14;;;;;;;8.50;4.45;;;;;;;15.70;64.86;101036.06;7396025;19;20019;-61
2022/05/11 05:43:43;;;;;;;9.35;4.50;;;;;;;15.71;64.98;101035.94;7396769;19;20359;-62
2022/05/11 05:46:12;;;;;;;6.88;4.50;;;;;;;15.59;65.06;101039.38;7396066;19;20018;-61
2022/05/11 05:48:41;;;;;;;5.25;4.10;;;;;;;15.69;65.36;101034.38;7393938;19;20014;-61
2022/05/11 05:51:13;;;;;;;9.25;4.28;;;;;;;15.82;64.76;101030.03;7394318;19;20023;-62
2022/05/11 05:53:43;;;;;;;7.20;4.00;;;;;;;15.74;64.58;101027.84;7396374;19;20018;-62
2022/05/11 05:56:16;;;;;;;6.78;4.47;;;;;;;15.65;64.30;101017.84;7396126;19;20014;-62
2022/05/11 05:58:47;;;;;;;5.43;4.03;;;;;;;15.77;64.02;101025.97;7394637;19;20018;-60
2022/05/11 06:01:17;;;;;;;8.70;3.90;;;;;;;15.85;64.16;101021.91;7395537;19;20010;-62
2022/05/11 06:03:47;;;;;;;7.13;4.07;;;;;;;15.90;63.80;101032.19;7396219;19;20503;-62
2022/05/11 06:06:15;;;;;;;8.30;3.70;;;;;;;15.82;63.68;101022.13;7395799;19;20509;-62
2022/05/11 06:08:44;;;;;;;7.82;4.15;;;;;;;15.82;61.86;101031.84;7394025;19;20029;-61
2022/05/11 06:11:16;;;;;;;7.05;3.63;;;;;;;15.83;62.85;101028.22;7393527;19;20021;-61
2022/05/11 06:13:45;;;;;;;9.98;3.92;;;;;;;16.00;62.65;101032.47;7395601;19;20022;-60
2022/05/11 06:16:16;;;;;;;5.97;4.10;;;;;;;15.95;62.76;101024.81;7395362;19;20482;-62
2022/05/11 06:18:47;;;;;;;7.68;3.97;;;;;;;15.99;62.44;101034.25;7394676;19;20492;-62
2022/05/11 06:21:17;;;;;;;7.03;4.25;;;;;;;15.93;62.09;101026.69;7394393;19;20011;-62
2022/05/11 06:23:46;;;;;;;6.32;3.70;;;;;;;15.99;62.03;101034.25;7395085;19;20399;-63
2022/05/11 06:26:19;;;;;;;12.10;3.70;;;;;;;15.98;60.35;101031.72;7390439;19;20108;-64
2022/05/11 06:28:49;;;;;;;10.05;3.67;;;;;;;15.96;60.09;101034.47;7394569;19;20015;-61
2022/05/11 06:31:17;;;;;;;8.30;3.45;;;;;;;16.12;60.58;101028.16;7394114;19;20368;-62
2022/05/11 06:33:49;;;;;;;7.60;3.78;;;;;;;16.09;60.62;101026.59;7395084;19;20018;-62
2022/05/11 06:36:18;;;;;;;11.18;3.33;;;;;;;16.23;59.51;101028.31;7394994;19;20010;-62
2022/05/11 06:38:47;;;;;;;13.38;4.70;;;;;;;16.17;58.95;101032.22;7393597;19;20022;-61
2022/05/11 06:41:23;;;;;;;12.35;4.70;;;;;;;16.14;58.56;101013.06;7391803;19;20026;-62
2022/05/11 06:43:52;;;;;;;8.52;3.70;;;;;;;16.14;57.71;101028.94;7395442;19;20015;-62
2022/05/11 06:46:22;;;;;;;10.90;3.80;;;;;;;16.22;56.67;101019.56;7396483;19;20395;-62
2022/05/11 06:48:51;;;;;;;6.13;2.90;;;;;;;16.22;55.86;101016.91;7394399;19;20025;-61
2022/05/11 06:51:21;;;;;;;13.70;3.20;;;;;;;16.23;55.18;101025.69;7392762;19;20056;-60
2022/05/11 06:59:24;;;;;;;4.88;2.10;;;;;;;16.17;53.19;101020.81;7391180;19;20014;-60
2022/05/11 07:01:55;;;;;;;8.02;2.13;;;;;;;16.24;53.29;101016.81;7393937;19;20415;-60
2022/05/11 07:04:24;;;;;;;6.88;2.22;;;;;;;16.33;53.21;101024.13;7394211;19;20045;-61
2022/05/11 07:06:54;;;;;;;6.15;2.30;;;;;;;16.32;52.69;101009.22;7371581;19;20022;-61
2022/05/11 07:09:24;;;;;;;6.65;2.35;;;;;;;16.33;54.02;101013.56;7389367;19;20094;-61
2022/05/11 07:14:38;;;;;;;7.40;2.60;;;;;;;16.56;53.48;101008.56;7395595;19;20018;-61
2022/05/11 07:17:08;;;;;;;9.38;2.88;;;;;;;16.55;53.45;101013.00;7394670;19;20014;-61
2022/05/11 07:19:43;;;;;;;9.50;2.92;;;;;;;16.54;53.28;101018.41;7391239;19;20468;-62
2022/05/11 07:22:12;;;;;;;7.03;2.50;;;;;;;16.48;53.50;101010.88;7394715;19;20014;-61
2022/05/11 07:24:42;;;;;;;6.10;2.45;;;;;;;16.84;52.32;101012.84;7394348;19;20025;-62
2022/05/11 07:27:14;;;;;;;5.57;2.10;;;;;;;16.70;51.47;101019.06;7389423;19;20101;-62
2022/05/11 07:29:43;;;;;;;12.25;2.42;;;;;;;16.55;50.64;101023.59;7393785;19;20022;-62
2022/05/11 07:32:13;;;;;;;7.78;1.95;;;;;;;16.43;49.42;101014.66;7393775;19;20050;-62
2022/05/11 07:34:42;;;;;;;10.05;2.10;;;;;;;16.31;48.83;101022.56;7395191;19;20007;-61
2022/05/11 07:37:11;;;;;;;5.57;1.80;;;;;;;16.40;48.68;101014.00;7393994;19;20023;-60
2022/05/11 07:39:40;;;;;;;14.10;2.15;;;;;;;16.54;48.96;101013.09;7392778;19;20019;-62
2022/05/11 07:42:10;;;;;;;7.03;1.83;;;;;;;16.64;49.24;101013.34;7393337;19;20029;-61
2022/05/11 07:44:41;;;;;;;4.63;1.30;;;;;;;16.66;49.48;101020.22;7394238;19;20022;-60
2022/05/11 07:47:10;;;;;;;16.80;2.42;;;;;;;16.73;49.04;101018.00;7393609;19;20526;-61
2022/05/11 07:49:39;;;;;;;8.95;2.67;;;;;;;16.59;49.18;101018.91;7391647;19;20017;-61
2022/05/11 07:52:10;;;;;;;8.75;2.17;;;;;;;16.57;49.57;101016.38;7391486;19;20022;-60
2022/05/11 07:54:40;;;;;;;6.40;1.75;;;;;;;16.72;49.46;101014.53;7392880;19;20348;-60
2022/05/11 08:00:00;;;;;;;7.95;1.83;;;;;;;16.75;49.79;101024.06;7389673;19;20045;-60
2022/05/11 08:02:30;;;;;;;9.38;1.70;;;;;;;16.58;49.87;101017.25;7392040;19;20022;-60
2022/05/11 08:05:01;;;;;;;8.07;1.60;;;;;;;16.71;49.24;101019.91;7392766;19;20010;-61
2022/05/11 08:07:32;;;;;;;9.13;1.95;;;;;;;16.66;49.91;101017.56;7393088;19;20074;-60
2022/05/11 08:10:02;;;;;;;11.52;1.80;;;;;;;16.53;49.94;101020.19;7390047;19;20011;-61
2022/05/11 08:12:31;;;;;;;5.57;1.58;;;;;;;16.61;49.90;101028.47;7391075;19;20078;-60
2022/05/11 08:15:02;;;;;;;4.45;1.20;;;;;;;16.51;50.27;101015.97;7391159;19;20021;-59
2022/05/11 08:17:34;;;;;;;6.75;1.58;;;;;;;16.80;50.36;101018.44;7391432;19;20024;-60
2022/05/11 08:20:04;;;;;;;7.28;1.73;;;;;;;16.83;49.52;101013.78;7389123;19;20029;-61
2022/05/11 08:22:34;;;;;;;7.13;1.58;;;;;;;17.11;49.50;101018.09;7391686;19;20729;-61
2022/05/11 08:25:03;;;;;;;23.52;2.70;;;;;;;16.95;49.05;101009.50;7391553;19;20010;-61
2022/05/11 08:27:32;;;;;;;28.02;3.88;;;;;;;17.18;48.48;101009.72;7391771;19;20372;-59
2022/05/11 08:35:28;;;;;;;9.25;1.40;;;;;;;17.23;48.35;101016.38;7391645;19;20044;-59
2022/05/11 08:37:58;;;;;;;8.03;1.70;;;;;;;17.06;48.84;101016.69;7391313;19;20024;-59
2022/05/11 08:40:34;;;;;;;10.95;1.77;;;;;;;17.34;48.85;101020.13;7390476;19;20006;-60
2022/05/11 08:43:05;;;;;;;7.38;1.77;;;;;;;17.47;49.35;101011.19;7390388;19;20116;-61
2022/05/11 08:45:41;;;;;;;5.43;1.42;;;;;;;17.16;48.48;101019.56;7390312;19;20646;-62
2022/05/11 08:48:12;;;;;;;7.10;1.90;;;;;;;17.07;48.80;101016.59;7390033;19;20026;-61
2022/05/11 08:50:46;;;;;;;7.20;1.70;;;;;;;17.24;48.89;101030.50;7389196;19;20387;-61
2022/05/11 08:53:29;;;;;;;7.75;1.80;;;;;;;17.24;48.69;101022.53;7389123;19;20018;-63
2022/05/11 08:56:02;;;;;;;7.90;1.73;;;;;;;17.13;48.86;101017.97;7390072;19;20014;-62
2022/05/11 08:58:41;;;;;;;7.32;2.00;;;;;;;17.60;48.98;101020.91;7389138;19;20052;-60
2022/05/11 09:01:21;;;;;;;6.25;1.58;;;;;;;17.70;48.73;101019.31;7389377;19;20495;-61
2022/05/11 09:03:54;;;;;;;5.78;1.55;;;;;;;18.12;48.23;101017.22;7389645;19;20023;-66
2022/05/11 09:06:27;;;;;;;9.18;2.17;;;;;;;17.71;49.36;101002.44;7395713;19;20395;-61
2022/05/11 09:08:57;;;;;;;8.40;2.17;;;;;;;17.88;48.83;101021.59;7396227;19;20022;-61
2022/05/11 09:11:29;;;;;;;15.88;1.98;;;;;;;17.54;49.20;101010.75;7395876;19;20021;-61
2022/05/11 09:14:00;;;;;;;12.20;2.08;;;;;;;17.58;49.43;101018.38;7396957;19;20010;-61
2022/05/11 09:16:41;;;;;;;6.85;2.10;;;;;;;18.04;49.07;100997.50;7397184;19;20375;-61
2022/05/11 09:19:17;;;;;;;11.68;2.17;;;;;;;18.48;48.69;101002.19;7391469;19;20533;-62
2022/05/11 09:21:52;;;;;;;14.00;2.60;;;;;;;17.97;48.57;101011.19;7394127;19;20022;-61
2022/05/11 09:24:31;;;;;;;11.20;3.10;;;;;;;17.93;49.36;100998.28;7395141;19;20026;-60
2022/05/11 09:27:10;;;;;;;38.60;5.05;;;;;;;17.97;48.42;100992.63;7395738;19;20414;-60
2022/05/11 09:29:42;;;;;;;13.40;3.05;;;;;;;18.31;48.98;100997.25;7391773;19;20475;-58
2022/05/11 09:32:25;;;;;;;;;;;;;;;17.93;48.82;100987.69;7394669;19;20114;-59
2022/05/11 09:34:55;;;;;;;21.20;3.55;;;;;;;18.03;48.69;100998.47;7393432;19;19914;-60
2022/05/11 09:37:31;;;;;;;9.98;2.58;;;;;;;18.30;48.64;100998.25;7334626;19;1005432;-60
2022/05/11 09:40:12;;;;;;;7.30;2.40;;;;;;;18.14;48.35;101004.66;7392267;19;20014;-58
2022/05/11 09:42:52;;;;;;;12.15;2.85;;;;;;;18.27;48.47;100987.88;7394776;19;20022;-59
2022/05/11 09:45:38;;;;;;;10.75;2.75;;;;;;;18.45;47.94;100989.16;7394789;19;20344;-60
2022/05/11 09:48:18;;;;;;;8.75;2.20;;;;;;;18.42;47.80;100988.50;7394242;19;20022;-59
2022/05/11 09:50:48;;;;;;;8.75;2.60;;;;;;;18.42;48.54;100991.16;7392984;19;20022;-59
2022/05/11 09:53:26;;;;;;;11.75;2.67;;;;;;;18.40;48.85;100987.78;7392483;19;20015;-59
2022/05/11 09:55:55;;;;;;;10.57;2.60;;;;;;;18.67;48.02;100998.13;7394298;19;20014;-57
2022/05/11 09:58:35;;;;;;;6.85;2.97;;;;;;;18.32;48.78;100994.53;7393221;19;20034;-58
2022/05/11 10:01:14;;;;;;;15.10;3.30;;;;;;;18.71;48.00;100996.09;7393656;19;20026;-59
2022/05/11 10:04:03;;;;;;;7.30;3.00;;;;;;;18.57;48.54;100995.31;7394600;19;20010;-59
2022/05/11 10:06:37;;;;;;;6.97;2.35;;;;;;;18.93;48.28;100987.38;7395000;19;20539;-59
2022/05/11 10:09:09;;;;;;;10.65;2.40;;;;;;;19.09;48.73;100982.56;7392516;19;20022;-59
2022/05/11 10:11:42;;;;;;;18.45;3.40;;;;;;;19.21;48.04;100986.06;7391901;19;20024;-58
2022/05/11 10:22:39;;;;;;;25.77;3.88;;;;;;;19.94;45.78;100981.16;7392503;19;20022;-60
2022/05/11 10:25:17;;;;;;;15.02;3.67;;;;;;;19.31;47.26;100984.38;7393587;19;20018;-59
2022/05/11 10:27:49;;;;;;;9.00;2.83;;;;;;;19.64;46.13;100973.84;7394239;19;20126;-59
2022/05/11 10:30:25;;;;;;;14.13;3.38;;;;;;;20.07;46.74;100980.19;7392145;19;20324;-58
2022/05/11 10:33:11;;;;;;;11.82;3.22;;;;;;;19.46;45.79;100969.03;7392086;19;20131;-59
2022/05/11 10:35:54;;;;;;;11.23;3.28;;;;;;;19.62;45.95;100975.78;7393099;19;20487;-59
2022/05/11 10:38:36;;;;;;;9.95;3.20;;;;;;;19.65;46.29;100968.38;7392427;19;20372;-59
2022/05/11 10:41:14;;;;;;;34.03;5.57;;;;;;;19.35;45.81;100956.56;7391725;19;20015;-60
2022/05/11 10:43:56;;;;;;;11.15;3.10;;;;;;;19.76;45.87;100977.31;7392720;19;20495;-60
2022/05/11 10:46:34;;;;;;;8.52;2.50;;;;;;;19.48;45.48;100967.09;7392625;19;20026;-59
2022/05/11 10:49:27;;;;;;;8.27;2.60;;;;;;;19.48;44.49;100966.25;7391564;19;20025;-59
2022/05/11 10:52:20;;;;;;;10.93;2.80;;;;;;;19.40;45.18;100958.03;7391182;19;20026;-59
2022/05/11 10:55:00;;;;;;;8.85;2.33;;;;;;;19.47;44.05;100964.53;7392309;19;20011;-60
2022/05/11 10:57:39;;;;;;;7.68;1.83;;;;;;;20.21;42.81;100966.59;7391736;19;20345;-60
2022/05/11 11:00:12;;;;;;;25.13;3.30;;;;;;;19.69;42.99;100964.53;7389470;19;20056;-59
2022/05/11 11:03:25;;;;;;;7.32;2.10;;;;;;;19.57;43.50;100970.81;7393287;19;20025;-59
2022/05/11 11:09:03;;;;;;;5.45;1.85;;;;;;;21.21;41.20;100960.78;7392093;19;20031;-59
2022/05/11 11:11:41;;;;;;;8.75;2.42;;;;;;;21.00;41.28;100952.00;7392305;19;20015;-58
2022/05/11 11:14:14;;;;;;;4.10;2.00;;;;;;;20.11;42.72;100960.34;7390456;19;20341;-60
2022/05/11 11:16:44;;;;;;;5.72;2.08;;;;;;;20.39;41.10;100957.06;7392920;19;20094;-60
2022/05/11 11:19:14;;;;;;;6.32;2.20;;;;;;;20.16;40.90;100948.34;7392085;19;20126;-59
2022/05/11 11:21:44;;;;;;;9.02;2.13;;;;;;;20.21;40.82;100940.81;7393216;19;20024;-56
2022/05/11 11:24:22;;;;;;;10.18;2.65;;;;;;;20.42;40.62;100947.13;7392346;19;20341;-60
2022/05/11 11:26:54;;;;;;;6.45;2.08;;;;;;;20.65;40.06;100935.38;7392495;19;20029;-59
2022/05/11 11:29:27;;;;;;;18.08;2.55;;;;;;;20.67;39.84;100940.59;7390632;19;20029;-60
2022/05/11 11:32:19;;;;;;;8.70;2.30;;;;;;;20.69;40.18;100935.97;7393270;19;20015;-60
2022/05/11 11:34:51;;;;;;;6.90;2.50;;;;;;;20.92;39.77;100929.53;7391825;19;20022;-59
2022/05/11 11:37:45;;;;;;;5.80;1.80;;;;;;;21.03;40.23;100925.09;7393174;19;20040;-61
2022/05/11 11:40:24;;;;;;;11.32;2.22;;;;;;;21.43;39.17;100935.78;7392261;19;20486;-59
2022/05/11 11:42:53;;;;;;;7.50;2.03;;;;;;;21.66;39.31;100924.88;7391471;19;20014;-59
2022/05/11 11:45:52;;;;;;;5.88;2.05;;;;;;;21.20;39.14;100921.78;7393103;19;20039;-60
2022/05/11 11:48:26;;;;;;;9.55;2.10;;;;;;;20.91;40.02;100921.69;7392793;19;20023;-60
2022/05/11 11:50:58;;;;;;;7.05;1.88;;;;;;;21.58;39.32;100919.41;7391027;19;20025;-60
2022/05/11 11:53:34;;;;;;;6.38;2.20;;;;;;;21.32;40.48;100919.88;7391480;19;20018;-59
2022/05/11 11:56:33;;;;;;;7.13;1.90;;;;;;;21.29;39.89;100913.97;7392998;19;20022;-58
2022/05/11 11:59:07;;;;;;;5.75;2.13;;;;;;;21.32;39.29;100913.69;7391735;19;20328;-57
2022/05/11 12:01:40;;;;;;;7.75;1.95;;;;;;;21.45;39.70;100919.63;7392934;19;20479;-60
2022/05/11 12:04:14;;;;;;;8.15;1.88;;;;;;;21.65;39.52;100912.56;7393269;19;20096;-59
2022/05/11 12:15:13;;;;;;;10.07;2.72;;;;;;;21.90;40.77;100895.16;7393144;19;20014;-59
2022/05/11 12:17:44;;;;;;;26.42;6.95;;;;;;;22.33;39.83;100906.41;7392334;19;20604;-58
2022/05/11 12:20:17;;;;;;;41.33;4.55;;;;;;;22.63;39.79;100897.34;7390757;19;20018;-63
2022/05/11 12:22:49;;;;;;;5.05;2.15;;;;;;;22.28;38.67;100896.13;7392451;19;20826;-58
2022/05/11 12:25:29;;;;;;;8.23;2.78;;;;;;;21.78;38.85;100904.28;7393362;19;20015;-58
2022/05/11 12:28:00;;;;;;;8.55;2.58;;;;;;;21.95;38.96;100892.09;7392654;19;20471;-58
2022/05/11 12:30:35;;;;;;;7.35;2.22;;;;;;;22.06;39.16;100896.41;7391468;19;20360;-57
2022/05/11 12:33:07;;;;;;;9.07;3.00;;;;;;;21.69;40.26;100899.78;7391478;19;20482;-57